Terminal Aerodrome Forecast
Issued by NWS Charleston, WV

Current Version | Previous Version | Text Only | Print | Product List | Glossary Off
Versions: 1 2 3 4 5 6 7 8 9 10 11 12 13 14 15 16 17 18 19 20 21 22 23 24 25 26 27 28 29

179
FTUS41 KRLX 170539
TAFCRW
TAF
KCRW 170539Z 1706/1806 26009G18KT P6SM -SHSN BKN025
     FM171300 25010G18KT P6SM BKN025
     FM171700 26010G19KT P6SM BKN035
     FM172200 29008G15KT P6SM SCT050=

USA.gov is the U.S. government's official web portal to all federal, state and local government web resources and services.